Time;durP1;ratioP1;P1;durP2;ratioP2;P2;SDS_P1;SDS_P2;PMS_P1;PMS_P2;Temp;Humidity;BMP_temperature;BMP_pressure;BME280_temperature;BME280_humidity;BME280_pressure;Samples;Min_cycle;Max_cycle;Signal;HPM_P1;HPM_P2
2022/08/15 00:01:20;;;;;;;5.72;2.22;;;24.90;67.90;;;;;;5091399;28;19910;-74
2022/08/15 00:03:49;;;;;;;3.55;2.15;;;24.80;67.80;;;;;;5091996;28;20107;-74
2022/08/15 00:06:22;;;;;;;8.52;2.40;;;24.80;67.80;;;;;;5090108;28;20055;-73
2022/08/15 00:08:52;;;;;;;6.55;2.08;;;24.80;67.90;;;;;;5092253;28;20049;-73
2022/08/15 00:11:23;;;;;;;2.70;2.25;;;24.80;68.00;;;;;;5092485;28;20036;-73
2022/08/15 00:13:56;;;;;;;7.63;2.47;;;24.70;68.00;;;;;;5096344;28;20469;-74
2022/08/15 00:16:22;;;;;;;6.45;2.33;;;24.80;68.20;;;;;;5094352;28;20024;-74
2022/08/15 00:18:49;;;;;;;5.10;2.10;;;24.70;68.10;;;;;;5094180;28;20035;-73
2022/08/15 00:21:19;;;;;;;5.72;2.28;;;24.70;68.20;;;;;;5095113;28;20021;-73
2022/08/15 00:23:44;;;;;;;3.28;2.10;;;24.70;68.20;;;;;;5095793;28;20472;-73
2022/08/15 00:26:13;;;;;;;8.27;2.42;;;24.70;68.40;;;;;;5094152;28;20046;-74
2022/08/15 00:28:39;;;;;;;6.78;2.20;;;24.70;68.40;;;;;;5096041;28;20110;-73
2022/08/15 00:31:05;;;;;;;4.60;2.25;;;24.70;68.50;;;;;;5095797;28;20410;-74
2022/08/15 00:33:33;;;;;;;7.60;2.33;;;24.70;68.70;;;;;;5094267;28;20113;-73
2022/08/15 00:35:58;;;;;;;3.15;1.80;;;24.60;68.70;;;;;;5103375;28;20465;-73
2022/08/15 00:38:27;;;;;;;3.58;2.28;;;24.60;68.70;;;;;;5110754;28;20107;-73
2022/08/15 00:43:59;;;;;;;3.80;2.28;;;24.60;69.10;;;;;;5095659;28;20090;-73
2022/08/15 00:46:28;;;;;;;5.45;2.25;;;24.50;68.90;;;;;;5095127;28;20173;-73
2022/08/15 00:48:54;;;;;;;3.97;2.20;;;24.50;68.90;;;;;;5095814;28;20024;-73
2022/08/15 00:51:33;;;;;;;3.58;1.98;;;24.50;68.90;;;;;;5110574;28;20027;-73
2022/08/15 00:54:16;;;;;;;4.85;2.10;;;24.50;68.80;;;;;;5095586;28;20032;-73
2022/08/15 00:56:50;;;;;;;3.72;2.05;;;24.50;68.90;;;;;;5110594;28;20115;-72
2022/08/15 00:59:19;;;;;;;5.07;2.10;;;24.50;68.80;;;;;;5094257;28;20362;-73
2022/08/15 01:01:46;;;;;;;2.78;1.95;;;24.50;68.90;;;;;;5111092;28;20028;-73
2022/08/15 01:04:14;;;;;;;5.97;2.47;;;24.40;69.00;;;;;;5094599;28;20032;-73
2022/08/15 01:06:39;;;;;;;6.35;3.10;;;24.40;69.10;;;;;;5095151;28;20077;-73
2022/08/15 01:09:07;;;;;;;4.10;2.17;;;24.40;69.20;;;;;;5094716;28;20028;-73
2022/08/15 01:12:05;;;;;;;5.90;2.17;;;24.40;69.30;;;;;;5111071;28;20032;-73
2022/08/15 01:14:32;;;;;;;4.85;2.10;;;24.30;69.70;;;;;;5092863;28;20063;-73
2022/08/15 01:16:59;;;;;;;5.80;2.25;;;24.30;69.60;;;;;;5095224;28;20048;-73
2022/08/15 01:19:33;;;;;;;5.10;2.30;;;24.30;69.80;;;;;;5094315;28;20020;-73
2022/08/15 01:22:29;;;;;;;5.90;2.10;;;24.30;70.20;;;;;;5095249;28;20024;-73
2022/08/15 01:25:12;;;;;;;2.80;2.10;;;24.20;70.70;;;;;;5094957;28;20039;-73
2022/08/15 01:28:01;;;;;;;3.40;2.10;;;24.20;70.90;;;;;;5094963;28;20111;-73
2022/08/15 01:30:49;;;;;;;5.65;2.25;;;24.10;71.30;;;;;;5109815;28;20066;-73
2022/08/15 01:33:16;;;;;;;3.72;2.30;;;24.10;71.40;;;;;;5108674;28;20031;-73
2022/08/15 01:35:42;;;;;;;4.47;2.20;;;24.10;71.70;;;;;;5110348;28;20024;-73
2022/08/15 01:38:32;;;;;;;6.88;2.30;;;24.00;72.00;;;;;;5109700;28;20020;-73
2022/08/15 01:41:04;;;;;;;4.32;2.17;;;24.00;72.60;;;;;;5110412;28;20037;-73
2022/08/15 01:43:34;;;;;;;6.32;2.60;;;23.90;72.70;;;;;;5093708;28;20507;-73
2022/08/15 01:46:04;;;;;;;7.45;2.20;;;24.00;73.50;;;;;;5109870;28;20035;-74
2022/08/15 01:48:41;;;;;;;4.78;2.00;;;24.00;73.20;;;;;;5109721;28;20024;-73
2022/08/15 01:51:10;;;;;;;6.35;2.25;;;23.90;73.80;;;;;;5109970;28;20025;-73
2022/08/15 01:53:42;;;;;;;4.18;2.00;;;23.90;74.70;;;;;;5094446;28;20188;-73
2022/08/15 01:56:19;;;;;;;4.50;2.28;;;23.80;75.50;;;;;;5109798;28;20024;-73
2022/08/15 01:58:45;;;;;;;4.40;1.95;;;23.70;76.10;;;;;;5094137;28;20021;-73
2022/08/15 02:01:15;;;;;;;7.70;2.25;;;23.60;76.60;;;;;;5109370;28;20066;-73
2022/08/15 02:03:43;;;;;;;3.90;2.20;;;23.60;76.90;;;;;;5094380;28;20500;-73
2022/08/15 02:06:16;;;;;;;6.80;2.38;;;23.50;77.30;;;;;;5093519;28;20020;-73
2022/08/15 02:08:43;;;;;;;3.10;2.03;;;23.50;77.70;;;;;;5110103;28;20165;-73
2022/08/15 02:11:20;;;;;;;6.03;2.28;;;23.50;78.20;;;;;;5109424;28;20024;-74
2022/08/15 02:13:49;;;;;;;5.15;2.20;;;23.40;79.10;;;;;;5094151;28;20057;-73
2022/08/15 02:16:17;;;;;;;5.07;2.00;;;23.40;79.20;;;;;;5108841;28;20473;-73
2022/08/15 02:18:43;;;;;;;7.57;2.10;;;23.40;79.50;;;;;;5093649;28;20035;-73
2022/08/15 02:21:09;;;;;;;3.78;2.15;;;23.40;79.50;;;;;;5093731;28;20020;-73
2022/08/15 02:23:35;;;;;;;4.25;1.95;;;23.40;79.90;;;;;;5093715;28;20032;-73
2022/08/15 02:26:01;;;;;;;3.38;2.08;;;23.40;80.10;;;;;;5109505;28;20032;-73
2022/08/15 02:28:26;;;;;;;3.15;2.10;;;23.30;80.40;;;;;;5092912;28;20028;-72
2022/08/15 02:30:53;;;;;;;2.78;2.08;;;23.30;80.70;;;;;;5109458;28;20035;-73
2022/08/15 02:33:20;;;;;;;4.70;1.98;;;23.30;80.90;;;;;;5108085;28;20122;-73
2022/08/15 02:35:46;;;;;;;5.07;1.90;;;23.20;81.60;;;;;;5093124;28;20129;-73
2022/08/15 02:38:11;;;;;;;4.13;1.60;;;23.10;82.20;;;;;;5108577;28;20045;-73
2022/08/15 02:40:37;;;;;;;2.53;1.75;;;23.00;82.90;;;;;;5093439;28;20206;-73
2022/08/15 02:43:08;;;;;;;3.60;1.63;;;23.00;83.80;;;;;;5093375;28;20481;-73
2022/08/15 02:45:37;;;;;;;5.43;1.85;;;22.80;84.60;;;;;;5092996;28;20032;-73
2022/08/15 02:48:08;;;;;;;3.75;1.80;;;22.80;85.50;;;;;;5109183;28;20071;-73
2022/08/15 02:50:36;;;;;;;2.92;1.55;;;22.60;86.80;;;;;;5093206;28;20020;-74
2022/08/15 02:53:10;;;;;;;4.88;1.77;;;22.50;87.50;;;;;;5109044;28;20043;-73
2022/08/15 02:55:36;;;;;;;4.70;1.60;;;22.50;88.50;;;;;;5108851;28;20024;-73
2022/08/15 02:58:02;;;;;;;2.50;1.70;;;22.50;89.20;;;;;;5093222;28;20020;-73
2022/08/15 03:00:29;;;;;;;2.90;1.75;;;22.50;89.80;;;;;;5092452;28;20024;-73
2022/08/15 03:03:02;;;;;;;5.93;1.92;;;22.40;90.40;;;;;;5108550;28;20028;-73
2022/08/15 03:05:30;;;;;;;4.00;1.90;;;22.30;91.00;;;;;;5092038;28;20039;-73
2022/08/15 03:07:56;;;;;;;2.33;1.70;;;22.20;91.70;;;;;;5093088;28;20032;-73
2022/08/15 03:10:21;;;;;;;1.88;1.42;;;22.10;91.90;;;;;;5091754;28;20503;-73
2022/08/15 03:12:59;;;;;;;2.33;1.50;;;22.00;92.50;;;;;;5108712;28;20032;-73
2022/08/15 03:15:41;;;;;;;3.50;1.85;;;22.00;93.10;;;;;;5107826;28;20032;-73
2022/08/15 03:18:07;;;;;;;2.05;1.75;;;21.90;93.70;;;;;;5092998;28;20020;-73
2022/08/15 03:20:33;;;;;;;2.88;1.63;;;21.90;94.10;;;;;;5107699;28;20046;-73
2022/08/15 03:22:59;;;;;;;4.45;1.80;;;21.80;94.60;;;;;;5092436;28;20106;-73
2022/08/15 03:25:25;;;;;;;2.60;1.70;;;21.80;95.10;;;;;;5091989;28;20381;-73
2022/08/15 03:27:52;;;;;;;3.33;2.22;;;21.70;95.50;;;;;;5108456;28;20366;-73
2022/08/15 03:30:18;;;;;;;1.80;1.70;;;21.60;95.90;;;;;;5091891;28;20482;-73
2022/08/15 03:32:46;;;;;;;4.32;1.90;;;21.60;96.30;;;;;;5108366;28;20024;-73
2022/08/15 03:35:13;;;;;;;3.70;1.85;;;21.60;96.60;;;;;;5107526;28;20414;-73
2022/08/15 03:37:39;;;;;;;4.57;1.88;;;21.60;96.70;;;;;;5092156;28;20020;-73
2022/08/15 03:40:06;;;;;;;3.65;1.70;;;21.50;96.90;;;;;;5108178;28;20024;-73
2022/08/15 03:42:33;;;;;;;2.35;1.60;;;21.50;97.10;;;;;;5091640;28;20609;-73
2022/08/15 03:45:02;;;;;;;2.40;1.63;;;21.50;97.20;;;;;;5108101;28;20119;-73
2022/08/15 03:47:29;;;;;;;3.05;1.50;;;21.60;97.50;;;;;;5106832;28;20358;-73
2022/08/15 03:49:55;;;;;;;4.35;2.00;;;21.50;97.60;;;;;;5092408;28;20024;-73
2022/08/15 03:52:20;;;;;;;3.20;1.75;;;21.50;97.90;;;;;;5091182;28;20805;-73
2022/08/15 03:54:46;;;;;;;2.45;1.50;;;21.40;98.10;;;;;;5092291;28;20062;-72
2022/08/15 03:57:12;;;;;;;2.65;1.67;;;21.40;98.20;;;;;;5092335;28;20020;-72
2022/08/15 03:59:38;;;;;;;3.92;2.00;;;21.40;98.40;;;;;;5092030;28;20055;-72
2022/08/15 04:02:07;;;;;;;2.85;1.75;;;21.40;98.60;;;;;;5092600;28;20059;-73
2022/08/15 04:04:33;;;;;;;3.25;1.83;;;21.40;98.70;;;;;;5106383;28;20020;-73
2022/08/15 04:06:59;;;;;;;2.42;1.70;;;21.40;98.90;;;;;;5091440;28;20028;-73
2022/08/15 04:09:25;;;;;;;3.78;1.80;;;21.40;99.10;;;;;;5106907;28;20032;-73
2022/08/15 04:11:50;;;;;;;3.60;1.90;;;21.40;99.20;;;;;;5107819;28;20143;-73
2022/08/15 04:14:16;;;;;;;4.32;1.95;;;21.40;99.60;;;;;;5091124;28;20048;-73
2022/08/15 04:16:41;;;;;;;2.38;1.67;;;21.30;99.70;;;;;;5092539;28;20372;-73
2022/08/15 04:19:07;;;;;;;4.68;1.95;;;21.40;99.80;;;;;;5107847;28;20024;-73
2022/08/15 04:21:33;;;;;;;4.60;1.90;;;21.40;99.90;;;;;;5107035;28;20016;-73
2022/08/15 04:23:59;;;;;;;5.30;1.80;;;21.40;99.90;;;;;;5092020;28;20024;-73
2022/08/15 04:26:25;;;;;;;3.30;2.17;;;21.40;99.90;;;;;;5091196;28;20033;-73
2022/08/15 04:28:50;;;;;;;4.00;2.28;;;21.40;99.90;;;;;;5107615;28;20032;-73
2022/08/15 04:31:19;;;;;;;3.33;2.45;;;21.40;99.90;;;;;;5091160;28;20082;-73
2022/08/15 04:33:45;;;;;;;4.10;2.30;;;21.40;99.90;;;;;;5091900;28;20032;-73
2022/08/15 04:36:14;;;;;;;2.38;1.83;;;21.30;99.90;;;;;;5107491;28;20465;-73
2022/08/15 04:38:42;;;;;;;4.70;1.95;;;21.30;99.90;;;;;;5091555;28;20016;-73
2022/08/15 04:41:09;;;;;;;3.40;1.92;;;21.40;99.90;;;;;;5091622;28;20020;-73
2022/08/15 04:43:36;;;;;;;3.03;2.25;;;21.30;99.90;;;;;;5106745;28;20028;-73
2022/08/15 04:46:03;;;;;;;3.80;2.00;;;21.30;99.90;;;;;;5107512;28;20366;-73
2022/08/15 04:48:30;;;;;;;4.60;2.08;;;21.20;99.90;;;;;;5091056;28;20035;-73
2022/08/15 04:50:57;;;;;;;5.38;2.25;;;21.20;99.90;;;;;;5091762;28;20028;-73
2022/08/15 04:53:26;;;;;;;3.60;1.70;;;21.20;99.90;;;;;;5106665;28;20028;-73
2022/08/15 04:55:53;;;;;;;5.07;1.88;;;21.30;99.90;;;;;;5091808;28;20020;-73
2022/08/15 04:58:19;;;;;;;4.45;1.83;;;21.20;99.90;;;;;;5093663;28;20024;-73
2022/08/15 05:00:59;;;;;;;2.63;1.73;;;21.30;99.90;;;;;;5111282;28;20067;-73
2022/08/15 05:03:25;;;;;;;5.93;2.15;;;21.30;99.90;;;;;;5094720;28;20059;-73
2022/08/15 05:06:03;;;;;;;3.53;2.10;;;21.30;99.90;;;;;;5110952;28;20420;-73
2022/08/15 05:08:31;;;;;;;5.45;1.77;;;21.30;99.90;;;;;;5110258;28;20098;-73
2022/08/15 05:11:01;;;;;;;4.22;2.70;;;21.30;99.90;;;;;;5095119;28;20112;-72
2022/08/15 05:13:30;;;;;;;5.30;2.20;;;21.40;99.90;;;;;;5094423;28;20068;-73
2022/08/15 05:15:58;;;;;;;4.07;2.20;;;21.40;99.90;;;;;;5094899;28;20024;-73
2022/08/15 05:18:25;;;;;;;4.78;1.80;;;21.40;99.90;;;;;;5094606;28;20073;-73
2022/08/15 05:20:52;;;;;;;4.68;1.95;;;21.40;99.90;;;;;;5095410;28;20035;-73
2022/08/15 05:23:20;;;;;;;3.65;2.20;;;21.50;99.90;;;;;;5094478;28;20060;-72
2022/08/15 05:25:51;;;;;;;3.83;2.38;;;21.50;99.90;;;;;;5110733;28;20483;-73
2022/08/15 05:28:17;;;;;;;3.80;2.23;;;21.50;99.90;;;;;;5094884;28;20103;-73
2022/08/15 05:30:43;;;;;;;3.95;2.03;;;21.50;99.90;;;;;;5110297;28;20108;-73
2022/08/15 05:33:15;;;;;;;3.42;1.67;;;21.50;99.90;;;;;;5094308;28;20103;-73
2022/08/15 05:35:44;;;;;;;2.63;2.03;;;21.50;99.90;;;;;;5094488;28;20043;-73
2022/08/15 05:38:14;;;;;;;3.72;2.15;;;21.50;99.90;;;;;;5094709;28;20054;-73
2022/08/15 05:41:01;;;;;;;3.30;2.13;;;21.50;99.90;;;;;;5093801;28;20027;-73
2022/08/15 05:43:48;;;;;;;2.58;1.88;;;21.50;99.90;;;;;;5093869;28;20047;-73
2022/08/15 05:46:35;;;;;;;2.88;1.80;;;21.60;99.90;;;;;;5110399;28;20111;-73
2022/08/15 05:49:15;;;;;;;4.47;2.00;;;21.60;99.90;;;;;;5110223;28;20055;-73
2022/08/15 05:51:48;;;;;;;6.05;1.90;;;21.60;99.90;;;;;;5109592;28;20063;-73
2022/08/15 05:54:43;;;;;;;5.05;1.50;;;21.60;99.90;;;;;;5094492;28;20035;-73
2022/08/15 05:57:25;;;;;;;3.97;1.55;;;21.60;99.90;;;;;;5057350;28;20029;-73
2022/08/15 05:59:55;;;;;;;1.33;1.23;;;21.60;99.90;;;;;;5094599;28;20024;-73
2022/08/15 06:02:30;;;;;;;5.25;1.50;;;21.50;99.90;;;;;;5093692;28;20020;-73
2022/08/15 06:05:13;;;;;;;3.95;1.60;;;21.50;99.90;;;;;;5109880;28;20044;-73
2022/08/15 06:07:47;;;;;;;2.35;1.42;;;21.50;99.90;;;;;;5109015;28;20103;-73
2022/08/15 06:10:36;;;;;;;2.63;1.40;;;21.40;99.90;;;;;;5093823;28;20103;-73
2022/08/15 06:13:30;;;;;;;3.65;1.73;;;21.40;99.90;;;;;;5094178;28;20093;-73
2022/08/15 06:16:22;;;;;;;3.65;1.73;;;21.40;99.90;;;;;;5091229;28;20477;-73
2022/08/15 06:18:48;;;;;;;3.15;1.75;;;21.40;99.90;;;;;;5094041;28;20077;-73
2022/08/15 06:21:17;;;;;;;2.47;1.55;;;21.30;99.90;;;;;;5109510;28;20028;-73
2022/08/15 06:24:19;;;;;;;2.60;1.33;;;21.40;99.90;;;;;;5108523;28;20024;-73
2022/08/15 06:27:00;;;;;;;1.83;1.30;;;21.30;99.90;;;;;;5085839;28;20036;-73
2022/08/15 06:29:40;;;;;;;2.45;1.40;;;21.40;99.90;;;;;;5093052;28;20024;-73
2022/08/15 06:32:11;;;;;;;3.28;1.30;;;21.50;99.90;;;;;;5093459;28;20031;-73
2022/08/15 06:34:50;;;;;;;2.70;1.23;;;21.50;99.90;;;;;;5108749;28;20024;-73
2022/08/15 06:37:35;;;;;;;1.95;1.40;;;21.50;99.90;;;;;;5093456;28;20527;-73
2022/08/15 06:40:12;;;;;;;1.90;1.30;;;21.50;99.90;;;;;;5093610;28;20024;-73
2022/08/15 06:42:44;;;;;;;3.83;2.30;;;21.40;99.90;;;;;;5108066;28;20383;-73
2022/08/15 06:45:31;;;;;;;3.45;1.60;;;21.40;99.90;;;;;;5093162;28;20051;-73
2022/08/15 06:48:26;;;;;;;6.63;2.60;;;21.30;99.90;;;;;;5093354;28;20095;-73
2022/08/15 06:50:54;;;;;;;3.40;1.63;;;21.30;99.90;;;;;;5091169;28;20401;-72
2022/08/15 06:53:55;;;;;;;4.90;2.10;;;21.20;99.90;;;;;;5092805;28;20024;-73
2022/08/15 06:56:31;;;;;;;3.47;1.45;;;21.20;99.90;;;;;;5093121;28;20024;-73
2022/08/15 06:59:35;;;;;;;3.28;1.80;;;21.10;99.90;;;;;;5109063;28;20020;-73
2022/08/15 07:02:23;;;;;;;3.35;1.65;;;21.10;99.90;;;;;;5093039;28;20016;-72
2022/08/15 07:05:07;;;;;;;6.03;2.47;;;21.00;99.90;;;;;;5072631;28;20040;-73
2022/08/15 07:08:10;;;;;;;5.25;2.70;;;21.00;99.90;;;;;;5092522;28;20020;-73
2022/08/15 07:10:50;;;;;;;4.18;2.30;;;21.00;99.90;;;;;;5091855;28;20111;-73
2022/08/15 07:13:20;;;;;;;3.28;1.98;;;20.90;99.90;;;;;;5108993;28;20078;-73
2022/08/15 07:15:56;;;;;;;4.13;1.92;;;20.90;99.90;;;;;;5092389;28;20028;-73
2022/08/15 07:18:29;;;;;;;2.78;1.77;;;20.90;99.90;;;;;;5108518;28;20074;-73
2022/08/15 07:21:20;;;;;;;2.65;1.73;;;20.80;99.90;;;;;;5108015;28;20043;-73
2022/08/15 07:24:08;;;;;;;3.30;1.88;;;20.90;99.90;;;;;;5091708;28;20046;-73
2022/08/15 07:26:59;;;;;;;4.65;1.77;;;20.90;99.90;;;;;;5107579;28;20028;-73
2022/08/15 07:29:36;;;;;;;4.13;2.42;;;20.90;99.90;;;;;;5091925;28;20437;-73
2022/08/15 07:32:08;;;;;;;3.97;1.63;;;21.00;99.90;;;;;;5128678;27;20361;-73
2022/08/15 07:34:33;;;;;;;3.70;1.70;;;21.10;99.90;;;;;;5111063;28;20027;-73
2022/08/15 07:37:03;;;;;;;3.53;1.60;;;21.10;99.90;;;;;;5101031;28;20387;-73
2022/08/15 07:39:40;;;;;;;3.28;1.83;;;21.20;99.90;;;;;;5108149;28;20464;-73
2022/08/15 07:42:25;;;;;;;3.33;1.67;;;21.30;99.90;;;;;;5110849;28;20060;-73
2022/08/15 07:44:57;;;;;;;2.35;1.58;;;21.30;99.90;;;;;;5102868;28;20469;-73
2022/08/15 07:47:27;;;;;;;2.63;1.65;;;21.40;99.90;;;;;;5102415;28;20047;-73
2022/08/15 07:50:16;;;;;;;3.85;1.95;;;21.50;99.90;;;;;;5113034;28;20092;-73
2022/08/15 07:52:41;;;;;;;3.13;1.80;;;21.60;99.90;;;;;;5106301;28;20062;-73
2022/08/15 07:55:19;;;;;;;2.10;1.30;;;21.60;99.90;;;;;;5111698;28;20461;-73
2022/08/15 07:58:02;;;;;;;2.03;1.77;;;21.60;99.90;;;;;;5111116;28;20027;-73
2022/08/15 08:00:30;;;;;;;5.05;1.67;;;21.60;99.90;;;;;;5112401;28;20027;-73
2022/08/15 08:03:01;;;;;;;3.40;1.70;;;21.50;99.90;;;;;;5111562;28;20464;-73
2022/08/15 08:06:06;;;;;;;6.22;1.52;;;21.40;99.90;;;;;;5112388;28;20031;-73
2022/08/15 08:08:47;;;;;;;2.08;1.48;;;21.30;99.90;;;;;;5112309;28;20031;-73
2022/08/15 08:11:29;;;;;;;3.83;1.85;;;21.30;99.90;;;;;;5111610;28;20024;-73
2022/08/15 08:14:15;;;;;;;2.97;1.40;;;21.30;99.90;;;;;;5112940;28;20051;-73
2022/08/15 08:16:52;;;;;;;2.08;1.67;;;21.40;99.90;;;;;;5111006;28;20114;-73
2022/08/15 08:19:40;;;;;;;2.42;1.63;;;21.40;99.90;;;;;;5112836;28;20028;-73
2022/08/15 08:22:35;;;;;;;2.85;1.80;;;21.50;99.90;;;;;;5110643;28;20030;-72
2022/08/15 08:25:15;;;;;;;3.03;1.60;;;21.50;99.90;;;;;;5128502;28;20468;-72
2022/08/15 08:27:51;;;;;;;2.88;1.83;;;21.70;99.90;;;;;;5128063;28;20499;-73
2022/08/15 08:30:23;;;;;;;3.97;1.55;;;21.70;99.90;;;;;;5128561;28;20024;-72
2022/08/15 08:33:13;;;;;;;2.28;1.60;;;21.90;99.90;;;;;;5113371;28;20012;-73
2022/08/15 08:35:44;;;;;;;1.90;1.80;;;22.10;99.90;;;;;;5115055;28;20031;-73
2022/08/15 08:38:38;;;;;;;4.55;1.70;;;22.20;99.70;;;;;;5115774;27;20038;-73
2022/08/15 08:41:35;;;;;;;2.08;1.50;;;22.40;99.30;;;;;;5113953;28;20023;-73
2022/08/15 08:44:18;;;;;;;3.63;2.08;;;22.40;99.00;;;;;;5112759;28;20376;-73
2022/08/15 08:47:06;;;;;;;2.45;1.73;;;22.40;98.60;;;;;;5113264;28;20484;-72
2022/08/15 08:50:08;;;;;;;4.13;2.05;;;22.20;98.70;;;;;;5114228;28;20062;-73
2022/08/15 08:52:41;;;;;;;2.42;1.70;;;22.30;98.60;;;;;;5113678;28;20065;-74
2022/08/15 08:55:11;;;;;;;2.53;1.75;;;22.40;98.50;;;;;;5123167;27;20112;-73
2022/08/15 08:57:46;;;;;;;2.30;1.80;;;22.40;98.40;;;;;;5112872;28;20045;-73
2022/08/15 09:00:23;;;;;;;2.63;1.70;;;22.40;98.30;;;;;;5115689;28;20103;-73
2022/08/15 09:03:03;;;;;;;2.47;1.50;;;22.50;98.20;;;;;;5113485;28;20031;-73
2022/08/15 09:05:44;;;;;;;1.70;1.50;;;22.60;98.00;;;;;;5114225;28;20106;-73
2022/08/15 09:08:16;;;;;;;1.70;1.50;;;22.90;97.40;;;;;;5113655;28;20412;-73
2022/08/15 09:10:47;;;;;;;2.53;1.70;;;22.90;97.20;;;;;;5108443;28;20472;-74
2022/08/15 09:13:34;;;;;;;2.45;1.70;;;22.90;97.30;;;;;;5115448;28;20024;-73
2022/08/15 09:16:09;;;;;;;2.13;1.52;;;22.80;97.20;;;;;;5113608;27;20115;-73
2022/08/15 09:18:51;;;;;;;1.92;1.58;;;22.90;97.10;;;;;;5121793;27;20019;-73
2022/08/15 09:21:18;;;;;;;2.88;1.92;;;23.10;96.70;;;;;;5119763;27;20024;-75
2022/08/15 09:23:46;;;;;;;3.08;1.50;;;23.20;96.20;;;;;;5115836;27;20472;-75
2022/08/15 09:26:11;;;;;;;1.67;1.50;;;23.20;96.20;;;;;;5117152;27;20030;-75
2022/08/15 09:28:41;;;;;;;3.35;1.67;;;23.40;95.90;;;;;;5127221;27;20019;-76
2022/08/15 09:31:23;;;;;;;2.45;1.80;;;23.40;95.30;;;;;;5123611;27;20038;-74
2022/08/15 09:34:21;;;;;;;3.58;1.90;;;23.40;95.20;;;;;;5127579;27;20027;-74
2022/08/15 09:37:34;;;;;;;7.25;4.10;;;23.40;95.20;;;;;;5122811;27;20019;-74
2022/08/15 09:40:22;;;;;;;5.47;2.42;;;23.40;94.80;;;;;;5110791;27;20043;-74
2022/08/15 09:42:47;;;;;;;4.03;1.90;;;23.40;94.50;;;;;;5123819;27;20629;-76
2022/08/15 09:45:55;;;;;;;1.90;1.52;;;23.40;94.20;;;;;;5113559;27;20042;-75
2022/08/15 09:48:33;;;;;;;4.18;2.17;;;23.60;93.80;;;;;;5103438;27;20058;-74
2022/08/15 09:51:18;;;;;;;2.50;1.50;;;23.60;93.50;;;;;;5123097;27;20032;-75
2022/08/15 09:53:54;;;;;;;1.98;1.67;;;23.70;92.90;;;;;;5128219;27;20027;-74
2022/08/15 09:56:23;;;;;;;2.70;1.75;;;23.70;93.20;;;;;;5102276;27;20023;-74
2022/08/15 09:58:53;;;;;;;2.03;1.48;;;23.80;92.50;;;;;;5124252;27;20061;-74
2022/08/15 10:01:28;;;;;;;2.00;1.38;;;23.80;92.90;;;;;;5127605;27;20023;-74
2022/08/15 10:03:59;;;;;;;3.20;1.42;;;23.80;92.70;;;;;;5116618;27;20476;-74
2022/08/15 10:06:57;;;;;;;1.70;1.60;;;23.80;92.60;;;;;;5104508;27;20023;-74
2022/08/15 10:09:37;;;;;;;2.92;1.65;;;24.00;92.20;;;;;;5125177;27;20270;-75
2022/08/15 10:12:06;;;;;;;2.60;1.42;;;24.00;92.00;;;;;;5117466;27;20028;-75
2022/08/15 10:15:02;;;;;;;4.25;1.42;;;24.10;91.80;;;;;;5126312;27;20157;-76
2022/08/15 10:17:37;;;;;;;2.20;1.33;;;24.10;91.30;;;;;;5122574;27;20022;-75
2022/08/15 10:20:15;;;;;;;3.03;1.17;;;24.20;91.40;;;;;;5116539;27;20024;-75
2022/08/15 10:22:59;;;;;;;2.55;1.48;;;24.10;91.30;;;;;;5121668;27;20070;-74
2022/08/15 10:25:35;;;;;;;1.98;1.38;;;24.10;91.50;;;;;;5120378;27;20472;-75
2022/08/15 10:28:14;;;;;;;2.00;1.30;;;24.20;91.00;;;;;;5129970;27;20027;-73
2022/08/15 10:30:46;;;;;;;1.73;1.27;;;24.10;90.70;;;;;;5106248;27;20035;-74
2022/08/15 10:33:36;;;;;;;1.90;1.27;;;24.20;90.70;;;;;;5120619;27;20023;-75
2022/08/15 10:36:14;;;;;;;3.17;1.38;;;24.20;90.80;;;;;;5129637;27;20027;-75
2022/08/15 10:38:44;;;;;;;2.97;1.35;;;24.20;90.70;;;;;;5119551;27;20069;-72
2022/08/15 10:41:25;;;;;;;2.05;1.10;;;24.20;90.70;;;;;;5119864;27;20450;-76
2022/08/15 10:44:01;;;;;;;1.17;0.98;;;24.30;90.80;;;;;;5128965;27;20035;-75
2022/08/15 10:46:50;;;;;;;1.48;1.25;;;24.50;90.00;;;;;;5118304;27;20516;-75
2022/08/15 10:50:01;;;;;;;2.88;1.40;;;24.70;89.70;;;;;;5120025;27;20027;-75
2022/08/15 10:52:50;;;;;;;2.17;1.47;;;24.70;89.00;;;;;;5095747;28;20039;-75
2022/08/15 10:55:32;;;;;;;3.47;1.95;;;24.90;88.60;;;;;;5119092;27;20718;-74
2022/08/15 10:58:22;;;;;;;1.65;1.35;;;25.10;88.00;;;;;;5114610;27;20028;-74
2022/08/15 11:00:53;;;;;;;1.95;1.30;;;25.10;87.40;;;;;;5111987;27;20023;-75
2022/08/15 11:03:29;;;;;;;2.97;1.45;;;25.20;87.20;;;;;;5114217;27;20016;-74
2022/08/15 11:06:02;;;;;;;3.33;1.92;;;25.40;86.60;;;;;;5114888;27;20038;-74
2022/08/15 11:08:28;;;;;;;2.22;1.67;;;25.40;85.80;;;;;;5111149;27;20034;-75
2022/08/15 11:11:07;;;;;;;1.88;1.20;;;25.50;85.50;;;;;;5120286;27;20031;-75
2022/08/15 11:13:35;;;;;;;3.28;1.67;;;25.40;85.30;;;;;;5124675;27;20043;-77
2022/08/15 11:16:16;;;;;;;2.45;1.75;;;25.40;85.20;;;;;;5115238;27;20020;-76
2022/08/15 11:18:50;;;;;;;1.85;1.30;;;25.40;85.10;;;;;;5125548;27;20019;-76
2022/08/15 11:21:37;;;;;;;1.40;1.20;;;25.40;84.70;;;;;;5124620;27;20079;-76
2022/08/15 11:24:08;;;;;;;1.98;1.55;;;25.50;84.70;;;;;;5116794;27;20429;-76
2022/08/15 11:26:42;;;;;;;1.90;1.50;;;25.50;83.80;;;;;;5125429;27;20022;-75
2022/08/15 11:29:17;;;;;;;1.55;1.30;;;25.50;83.30;;;;;;5122965;27;20031;-74
2022/08/15 11:31:55;;;;;;;4.18;1.55;;;25.50;82.60;;;;;;5114692;27;20381;-74
2022/08/15 11:34:25;;;;;;;1.70;1.50;;;25.50;82.70;;;;;;5096610;28;20024;-74
2022/08/15 11:36:54;;;;;;;2.53;1.67;;;25.50;82.90;;;;;;5119678;27;20075;-73
2022/08/15 11:39:20;;;;;;;2.63;1.50;;;25.40;82.70;;;;;;5118552;27;20107;-73
2022/08/15 11:41:58;;;;;;;2.50;1.45;;;25.50;83.10;;;;;;5127674;27;20051;-74
2022/08/15 11:44:28;;;;;;;3.20;1.70;;;25.50;82.80;;;;;;5101447;27;20031;-74
2022/08/15 11:46:54;;;;;;;3.38;1.65;;;25.50;82.30;;;;;;5118644;27;20023;-73
2022/08/15 11:49:31;;;;;;;3.30;1.70;;;25.60;82.20;;;;;;5112725;27;20035;-76
2022/08/15 11:52:05;;;;;;;2.45;1.50;;;25.60;82.30;;;;;;5128903;27;20019;-75
2022/08/15 11:54:31;;;;;;;2.75;1.65;;;25.70;82.30;;;;;;5118083;27;20023;-75
2022/08/15 11:57:02;;;;;;;1.90;1.52;;;25.70;81.40;;;;;;5121346;27;20026;-76
2022/08/15 11:59:28;;;;;;;2.70;1.60;;;25.80;80.90;;;;;;5125452;27;20031;-75
2022/08/15 12:02:12;;;;;;;1.70;1.60;;;25.90;80.10;;;;;;5113872;28;20035;-74
2022/08/15 12:04:42;;;;;;;2.03;1.50;;;26.00;79.60;;;;;;5123996;28;20038;-77
2022/08/15 12:07:27;;;;;;;3.10;1.48;;;26.10;78.20;;;;;;5119085;27;20053;-76
2022/08/15 12:09:59;;;;;;;1.95;1.63;;;26.20;77.00;;;;;;5128646;28;20298;-74
2022/08/15 12:12:37;;;;;;;2.50;1.50;;;26.30;76.80;;;;;;5117511;28;20027;-75
2022/08/15 12:15:17;;;;;;;2.00;1.70;;;26.40;75.80;;;;;;5124034;28;20068;-74
2022/08/15 12:18:08;;;;;;;2.58;2.00;;;26.60;75.50;;;;;;5117632;28;20061;-77
2022/08/15 12:20:46;;;;;;;2.05;1.80;;;26.70;75.00;;;;;;5111161;28;20035;-76
2022/08/15 12:23:30;;;;;;;4.03;1.90;;;26.70;74.50;;;;;;5115963;28;20077;-76
2022/08/15 12:26:21;;;;;;;4.50;1.83;;;26.70;72.80;;;;;;5110753;28;20036;-76
2022/08/15 12:28:46;;;;;;;3.65;1.85;;;26.80;73.20;;;;;;5109084;28;20062;-76
2022/08/15 12:31:15;;;;;;;2.78;1.60;;;27.00;72.00;;;;;;5109484;28;20051;-76
2022/08/15 12:33:43;;;;;;;2.33;1.65;;;27.20;70.80;;;;;;5111564;28;20023;-76
2022/08/15 12:36:09;;;;;;;2.53;2.00;;;27.40;69.80;;;;;;5121204;28;20441;-76
2022/08/15 12:38:35;;;;;;;2.55;1.80;;;27.60;70.30;;;;;;5123880;28;20055;-76
2022/08/15 12:41:02;;;;;;;3.40;1.52;;;27.80;70.00;;;;;;5120409;28;20063;-76
2022/08/15 12:43:28;;;;;;;1.77;1.67;;;27.90;69.00;;;;;;5117999;28;20442;-75
2022/08/15 12:45:54;;;;;;;2.55;1.80;;;28.10;68.50;;;;;;5120144;28;20373;-76
2022/08/15 12:48:29;;;;;;;2.72;1.70;;;28.10;67.70;;;;;;5126761;28;20027;-77
2022/08/15 12:50:55;;;;;;;3.05;2.00;;;28.30;67.20;;;;;;5119644;28;20379;-76
2022/08/15 12:53:22;;;;;;;5.57;2.10;;;28.40;67.00;;;;;;5117689;28;20023;-77
2022/08/15 12:55:48;;;;;;;2.72;1.75;;;28.60;66.20;;;;;;5126766;28;20023;-76
2022/08/15 12:58:19;;;;;;;2.22;2.03;;;28.80;66.70;;;;;;5115821;28;20026;-74
2022/08/15 13:00:46;;;;;;;5.63;1.77;;;29.20;65.60;;;;;;5121172;28;20020;-74
2022/08/15 13:03:27;;;;;;;1.95;1.60;;;29.20;64.60;;;;;;5120729;27;20109;-76
2022/08/15 13:06:11;;;;;;;3.55;1.58;;;29.00;64.40;;;;;;5111215;28;20474;-80
2022/08/15 13:08:37;;;;;;;2.75;2.08;;;28.90;64.80;;;;;;5124224;28;20054;-80
2022/08/15 13:11:02;;;;;;;4.68;1.63;;;28.90;64.60;;;;;;5122720;28;20055;-78
2022/08/15 13:13:28;;;;;;;2.72;1.63;;;28.90;64.60;;;;;;5117706;27;20056;-76
2022/08/15 13:15:54;;;;;;;3.38;1.95;;;28.70;65.00;;;;;;5110804;28;20028;-77
2022/08/15 13:18:23;;;;;;;2.72;1.90;;;28.50;65.60;;;;;;5127105;27;20030;-76
2022/08/15 13:23:35;;;;;;;6.32;2.22;;;28.00;67.40;;;;;;5116692;27;20188;-76
2022/08/15 13:26:01;;;;;;;3.10;1.92;;;27.90;68.80;;;;;;5114940;27;20020;-82
2022/08/15 13:28:27;;;;;;;3.63;2.00;;;27.80;69.10;;;;;;5116272;27;20089;-79
2022/08/15 13:30:53;;;;;;;2.80;1.98;;;27.60;70.00;;;;;;5114378;28;20452;-83